Time;durP1;ratioP1;P1;durP2;ratioP2;P2;SDS_P1;SDS_P2;PMS_P1;PMS_P2;Temp;Humidity;BMP_temperature;BMP_pressure;BME280_temperature;BME280_humidity;BME280_pressure;Samples;Min_cycle;Max_cycle;Signal;HPM_P1;HPM_P2
2022/09/13 00:00:00;;;;;;;10.57;5.60;;;;;;;;;;5048241;28;20099;-75
2022/09/13 00:02:25;;;;;;;10.03;5.73;;;;;;;;;;5047696;28;20044;-66
2022/09/13 00:04:50;;;;;;;11.33;5.33;;;;;;;;;;5033739;28;20348;-67
2022/09/13 00:07:15;;;;;;;8.13;4.93;;;;;;;14.35;nan;100310.78;5048421;28;20319;-66
2022/09/13 00:09:41;;;;;;;7.35;5.38;;;;;;;;;;5047008;28;20200;-67
2022/09/13 00:12:06;;;;;;;7.87;4.80;;;;;;;;;;5050263;28;20493;-66
2022/09/13 00:14:31;;;;;;;8.32;4.80;;;;;;;;;;5050019;28;20031;-67
2022/09/13 00:16:57;;;;;;;8.20;4.70;;;;;;;;;;5032149;28;20021;-66
2022/09/13 00:19:22;;;;;;;7.97;4.65;;;;;;;;;;5033421;28;20651;-66
2022/09/13 00:21:47;;;;;;;8.27;4.97;;;;;;;;;;5051961;28;20025;-67
2022/09/13 00:24:13;;;;;;;10.40;4.77;;;;;;;;;;5052033;28;20033;-68
2022/09/13 00:26:38;;;;;;;8.35;4.88;;;;;;;;;;5050115;28;20028;-75
2022/09/13 00:29:03;;;;;;;9.57;5.40;;;;;;;;;;5053213;28;20075;-75
2022/09/13 00:31:29;;;;;;;6.87;4.73;;;;;;;13.86;nan;100316.13;5030823;28;20394;-76
2022/09/13 00:33:54;;;;;;;10.40;4.95;;;;;;;;;;5018296;28;20052;-75
2022/09/13 00:36:20;;;;;;;26.55;5.40;;;;;;;;;;5029524;28;20100;-75
2022/09/13 00:38:45;;;;;;;7.18;4.82;;;;;;;;;;5048083;28;20079;-75
2022/09/13 00:41:12;;;;;;;11.93;5.40;;;;;;;;;;5031625;28;20047;-75
2022/09/13 00:43:47;;;;;;;8.68;5.43;;;;;;;;;;5032707;28;20605;-67
2022/09/13 00:46:32;;;;;;;5.80;4.45;;;;;;;;;;5044609;28;20048;-67
2022/09/13 00:49:17;;;;;;;7.97;4.93;;;;;;;;;;5052812;28;20033;-76
2022/09/13 00:51:45;;;;;;;6.50;5.00;;;;;;;;;;5054424;28;20083;-75
2022/09/13 00:54:12;;;;;;;8.18;4.93;;;;;;;;;;5054290;28;20033;-76
2022/09/13 00:56:40;;;;;;;5.82;4.68;;;;;;;;;;5051091;28;20021;-75
2022/09/13 00:59:14;;;;;;;10.95;5.07;;;;;;;;;;5049922;28;20075;-75
2022/09/13 01:01:43;;;;;;;7.72;4.95;;;;;;;;;;5055151;28;20092;-67
2022/09/13 01:04:08;;;;;;;10.38;4.75;;;;;;;;;;5056735;28;20028;-75
2022/09/13 01:06:35;;;;;;;10.05;5.32;;;;;;;;;;5042638;28;20033;-75
2022/09/13 01:09:03;;;;;;;5.80;4.57;;;;;;;;;;5058937;28;20020;-75
2022/09/13 01:11:31;;;;;;;11.18;5.72;;;;;;;;;;5058636;28;20474;-75
2022/09/13 01:13:57;;;;;;;9.18;5.32;;;;;;;;;;5058522;28;20415;-74
2022/09/13 01:16:22;;;;;;;11.20;5.88;;;;;;;;;;5060778;28;20033;-75
2022/09/13 01:18:47;;;;;;;7.55;5.22;;;;;;;;;;5058071;28;20049;-75
2022/09/13 01:21:18;;;;;;;9.37;5.43;;;;;;;;;;5056410;28;20062;-75
2022/09/13 01:24:14;;;;;;;11.32;5.30;;;;;;;;;;5040453;28;20033;-74
2022/09/13 01:26:54;;;;;;;13.30;5.45;;;;;;;;;;5062709;28;20051;-74
2022/09/13 01:29:33;;;;;;;11.52;5.53;;;;;;;;;;5055885;28;20151;-75
2022/09/13 01:32:01;;;;;;;6.20;4.97;;;;;;;;;;5047896;28;20101;-75
2022/09/13 01:34:31;;;;;;;7.38;5.13;;;;;;;;;;5043017;28;20059;-75
2022/09/13 01:37:15;;;;;;;7.85;5.38;;;;;;;;;;5067208;28;20025;-75
2022/09/13 01:39:59;;;;;;;9.32;5.20;;;;;;;;;;5063136;28;20039;-75
2022/09/13 01:42:24;;;;;;;6.20;4.50;;;;;;;;;;5048239;28;20060;-74
2022/09/13 01:44:53;;;;;;;11.77;5.63;;;;;;;;;;5058322;28;20052;-74
2022/09/13 01:47:23;;;;;;;9.00;5.03;;;;;;;;;;5034742;28;20025;-67
2022/09/13 01:49:55;;;;;;;8.15;5.20;;;;;;;;;;5043283;28;20029;-67
2022/09/13 01:52:25;;;;;;;8.73;5.35;;;;;;;;;;5031005;28;20471;-68
2022/09/13 01:55:09;;;;;;;8.18;5.38;;;;;;;;;;5045611;28;20057;-68
2022/09/13 01:57:55;;;;;;;12.95;5.50;;;;;;;;;;5048338;28;20111;-75
2022/09/13 02:00:20;;;;;;;7.53;5.10;;;;;;;;;;5013577;28;20037;-76
2022/09/13 02:02:49;;;;;;;8.83;5.90;;;;;;;;;;5049623;28;20535;-76
2022/09/13 02:05:18;;;;;;;14.00;6.10;;;;;;;;;;5050528;28;20280;-76
2022/09/13 02:07:48;;;;;;;9.40;6.40;;;;;;;;;;5037460;28;20029;-76
2022/09/13 02:10:16;;;;;;;11.82;7.05;;;;;;;;;;5025960;28;20520;-68
2022/09/13 02:12:42;;;;;;;12.90;7.43;;;;;;;;;;5044505;28;20490;-76
2022/09/13 02:15:11;;;;;;;9.98;6.25;;;;;;;;;;5042899;28;20076;-68
2022/09/13 02:17:37;;;;;;;10.57;7.03;;;;;;;;;;5041741;28;20407;-66
2022/09/13 02:20:23;;;;;;;9.57;6.30;;;;;;;;;;5030866;28;20265;-66
2022/09/13 02:22:52;;;;;;;11.60;6.70;;;;;;;;;;5048314;28;20041;-74
2022/09/13 02:25:18;;;;;;;11.93;6.47;;;;;;;;;;5043594;28;20033;-75
2022/09/13 02:27:48;;;;;;;11.35;6.63;;;;;;;;;;5019036;28;20275;-76
2022/09/13 02:30:14;;;;;;;11.38;6.70;;;;;;;;;;5041683;28;20029;-75
2022/09/13 02:32:53;;;;;;;11.52;7.18;;;;;;;;;;5049227;28;20020;-75
2022/09/13 02:35:21;;;;;;;11.13;7.18;;;;;;;;;;5024070;28;20052;-75
2022/09/13 02:37:51;;;;;;;12.85;7.35;;;;;;;;;;5023338;28;20049;-75
2022/09/13 02:40:16;;;;;;;;;;;;;;;;;;5046709;28;20021;-75
2022/09/13 02:42:43;;;;;;;14.05;6.72;;;;;;;;;;5032024;28;19915;-75
2022/09/13 02:45:09;;;;;;;11.55;7.18;;;;;;;;;;5031254;28;20071;-75
2022/09/13 02:47:37;;;;;;;11.93;7.40;;;;;;;;;;5047973;28;20052;-67
2022/09/13 02:50:09;;;;;;;12.57;7.15;;;;;;;;;;5030357;28;20497;-68
2022/09/13 02:52:44;;;;;;;10.43;6.90;;;;;;;;;;5045274;28;20060;-76
2022/09/13 02:55:09;;;;;;;12.73;7.28;;;;;;;;;;5046803;28;20075;-75
2022/09/13 02:57:40;;;;;;;11.93;7.00;;;;;;;;;;5046771;28;20017;-75
2022/09/13 03:00:06;;;;;;;12.45;7.00;;;;;;;;;;5047393;28;20775;-75
2022/09/13 03:02:32;;;;;;;11.23;6.60;;;;;;;;;;5049602;28;20024;-68
2022/09/13 03:04:59;;;;;;;12.40;6.90;;;;;;;;;;5049317;28;20025;-69
2022/09/13 03:07:24;;;;;;;19.25;7.10;;;;;;;;;;5049464;28;20059;-68
2022/09/13 03:09:52;;;;;;;12.60;6.57;;;;;;;;;;5049388;28;20052;-67
2022/09/13 03:12:37;;;;;;;11.88;6.43;;;;;;;;;;5045012;28;20087;-68
2022/09/13 03:15:05;;;;;;;10.68;6.30;;;;;;;;;;5051535;28;20029;-68
2022/09/13 03:17:52;;;;;;;15.70;6.38;;;;;;;;;;5052847;28;20430;-68
2022/09/13 03:20:24;;;;;;;10.23;6.15;;;;;;;;;;5050252;28;20482;-68
2022/09/13 03:22:58;;;;;;;11.77;6.75;;;;;;;;;;5052038;28;20104;-68
2022/09/13 03:25:40;;;;;;;13.90;7.07;;;;;;;;;;5032608;28;20028;-68
2022/09/13 03:28:08;;;;;;;14.02;6.32;;;;;;;;;;5049700;28;20029;-67
2022/09/13 03:30:35;;;;;;;12.35;6.55;;;;;;;;;;5052402;28;20407;-67
2022/09/13 03:33:05;;;;;;;18.15;6.85;;;;;;;;;;5052124;28;20035;-69
2022/09/13 03:35:38;;;;;;;18.40;7.28;;;;;;;;;;5050483;28;20029;-67
2022/09/13 03:38:03;;;;;;;15.20;6.70;;;;;;;;;;5043495;28;20041;-67
2022/09/13 03:40:32;;;;;;;12.80;5.87;;;;;;;;;;5045429;28;20029;-67
2022/09/13 03:43:03;;;;;;;12.23;6.32;;;;;;;;;;5049422;28;20322;-68
2022/09/13 03:45:30;;;;;;;10.07;6.07;;;;;;;;;;5049182;28;20029;-66
2022/09/13 03:47:56;;;;;;;12.45;5.97;;;;;;;;;;5049843;28;20032;-68
2022/09/13 03:50:22;;;;;;;13.65;6.18;;;;;;;;;;5051616;28;20033;-67
2022/09/13 03:52:51;;;;;;;8.45;5.22;;;;;;;;;;5046388;28;20506;-67
2022/09/13 03:55:20;;;;;;;10.13;5.47;;;;;;;;;;5044222;28;20036;-68
2022/09/13 03:57:45;;;;;;;14.85;6.75;;;;;;;;;;5047089;28;20028;-69
2022/09/13 04:00:12;;;;;;;11.95;6.07;;;;;;;;;;5051621;28;20021;-67
2022/09/13 04:02:37;;;;;;;10.82;6.70;;;;;;;;;;5047310;28;20025;-68
2022/09/13 04:05:02;;;;;;;11.33;6.77;;;;;;;;;;5048215;28;20036;-68
2022/09/13 04:07:28;;;;;;;12.52;7.70;;;;;;;;;;5048589;28;20089;-67
2022/09/13 04:09:54;;;;;;;13.45;7.55;;;;;;;;;;5047553;28;20079;-77
2022/09/13 04:12:20;;;;;;;14.73;6.82;;;;;;;;;;5034015;28;20052;-75
2022/09/13 04:14:45;;;;;;;18.63;7.57;;;;;;;;;;5027910;28;20122;-67
2022/09/13 04:17:11;;;;;;;15.13;7.60;;;;;;;;;;5046456;28;20479;-67
2022/09/13 04:19:37;;;;;;;13.07;7.07;;;;;;;;;;5050347;28;20048;-67
2022/09/13 04:22:02;;;;;;;18.80;7.95;;;;;;;;;;5030747;28;20546;-74
2022/09/13 04:24:28;;;;;;;15.20;7.53;;;;;;;;;;5032842;28;20021;-67
2022/09/13 04:26:54;;;;;;;17.90;7.60;;;;;;;;;;5047626;28;20365;-67
2022/09/13 04:29:20;;;;;;;26.38;8.43;;;;;;;;;;5046943;28;20170;-67
2022/09/13 04:31:45;;;;;;;20.75;8.02;;;;;;;;;;5023093;28;20537;-67
2022/09/13 04:34:10;;;;;;;20.05;8.23;;;;;;;;;;5045726;28;20104;-67
2022/09/13 04:36:36;;;;;;;23.47;7.13;;;;;;;;;;5034419;28;20024;-75
2022/09/13 04:39:02;;;;;;;23.50;7.60;;;;;;;;;;5053791;28;20277;-67
2022/09/13 04:41:27;;;;;;;21.23;7.63;;;;;;;;;;5031305;28;20032;-67
2022/09/13 04:43:53;;;;;;;19.70;6.95;;;;;;;;;;5051257;28;20021;-67
2022/09/13 04:46:18;;;;;;;20.15;7.43;;;;;;;;;;5032288;28;20036;-66
2022/09/13 04:48:47;;;;;;;16.50;8.05;;;;;;;;;;5046317;28;20131;-67
2022/09/13 04:51:13;;;;;;;23.70;7.50;;;;;;;;;;5045072;28;20025;-76
2022/09/13 04:53:38;;;;;;;19.33;8.18;;;;;;;;;;5050199;28;20047;-73
2022/09/13 04:56:04;;;;;;;19.67;7.88;;;;;;;;;;5046024;28;20670;-74
2022/09/13 04:58:30;;;;;;;24.83;7.35;;;;;;;;;;5032691;28;20024;-74
2022/09/13 05:01:09;;;;;;;17.20;8.50;;;;;;;;;;5044197;28;20411;-72
2022/09/13 05:03:35;;;;;;;29.33;16.13;;;;;;;;;;5050379;28;20486;-74
2022/09/13 05:06:04;;;;;;;34.35;19.55;;;;;;;;;;5050411;28;20052;-76
2022/09/13 05:08:30;;;;;;;28.10;16.10;;;;;;;;;;5048587;28;20029;-75
2022/09/13 05:10:55;;;;;;;25.70;13.40;;;;;;;;;;5029854;28;20032;-74
2022/09/13 05:13:20;;;;;;;27.27;12.43;;;;;;;;;;5047397;28;20033;-76
2022/09/13 05:15:46;;;;;;;23.70;10.07;;;;;;;;;;5048412;28;20040;-76
2022/09/13 05:18:11;;;;;;;22.23;9.23;;;;;;;;;;5046488;28;20491;-73
2022/09/13 05:20:36;;;;;;;16.73;8.10;;;;;;;;;;5032165;28;20056;-74
2022/09/13 05:23:02;;;;;;;16.27;7.53;;;;;;;;;;5046148;28;20029;-67
2022/09/13 05:25:27;;;;;;;26.30;8.50;;;;;;;;;;5049381;28;20688;-75
2022/09/13 05:27:52;;;;;;;17.17;8.37;;;;;;;;;;5050743;28;20066;-74
2022/09/13 05:30:17;;;;;;;26.37;8.60;;;;;;;;;;5046979;28;20029;-75
2022/09/13 05:32:43;;;;;;;17.00;8.27;;;;;;;;;;5049312;28;20323;-75
2022/09/13 05:35:08;;;;;;;19.60;8.93;;;;;;;;;;5046889;28;20035;-74
2022/09/13 05:37:33;;;;;;;13.05;8.57;;;;;;;;;;5042494;28;20021;-73
2022/09/13 05:39:58;;;;;;;17.57;8.83;;;;;;;;;;5047595;28;20025;-74
2022/09/13 05:42:24;;;;;;;17.97;9.57;;;;;;;;;;5037306;28;20032;-75
2022/09/13 05:44:49;;;;;;;17.40;9.00;;;;;;;;;;5050015;28;20040;-74
2022/09/13 05:47:14;;;;;;;18.23;9.60;;;;;;;;;;5028865;28;20033;-77
2022/09/13 05:49:40;;;;;;;12.57;8.13;;;;;;;;;;5048138;28;20059;-76
2022/09/13 05:52:05;;;;;;;22.05;10.77;;;;;;;;;;5048926;28;20273;-73
2022/09/13 05:54:30;;;;;;;21.67;9.50;;;;;;;;;;5032899;28;20031;-67
2022/09/13 05:56:56;;;;;;;16.33;9.50;;;;;;;;;;5046496;28;20265;-69
2022/09/13 05:59:21;;;;;;;14.70;9.43;;;;;;;;;;5046448;28;20406;-68
2022/09/13 06:01:47;;;;;;;24.75;9.73;;;;;;;;;;5046319;28;20044;-68
2022/09/13 06:04:13;;;;;;;25.67;9.40;;;;;;;;;;5046471;28;20028;-74
2022/09/13 06:06:38;;;;;;;14.50;9.02;;;;;;;;;;5048819;28;20020;-75
2022/09/13 06:09:07;;;;;;;20.70;9.38;;;;;;;;;;5031306;28;20044;-75
2022/09/13 06:11:32;;;;;;;16.77;8.85;;;;;;;;;;5050347;28;20033;-75
2022/09/13 06:13:57;;;;;;;20.60;9.05;;;;;;;;;;5049293;28;20095;-75
2022/09/13 06:16:23;;;;;;;13.93;9.13;;;;;;;;;;5061579;28;20480;-75
2022/09/13 06:18:48;;;;;;;22.07;9.57;;;;;;;;;;5058232;28;20294;-75
2022/09/13 06:21:18;;;;;;;13.35;8.75;;;;;;;;;;5062041;28;20549;-75
2022/09/13 06:23:44;;;;;;;20.42;9.25;;;;;;;;;;5057182;28;20082;-67
2022/09/13 06:26:11;;;;;;;15.57;9.52;;;;;;;;;;5065637;28;20021;-67
2022/09/13 06:28:37;;;;;;;19.98;10.45;;;;;;;;;;5066315;28;20020;-75
2022/09/13 06:31:07;;;;;;;20.35;10.02;;;;;;;;;;5064157;28;20021;-75
2022/09/13 06:33:33;;;;;;;16.73;9.20;;;;;;;;;;5059845;28;20021;-74
2022/09/13 06:35:59;;;;;;;16.92;9.82;;;;;;;;;;5044782;28;20420;-75
2022/09/13 06:38:24;;;;;;;17.42;9.75;;;;;;;;;;5070830;28;20036;-74
2022/09/13 06:40:58;;;;;;;16.93;9.50;;;;;;;;;;5075823;28;20025;-75
2022/09/13 06:43:23;;;;;;;17.98;9.48;;;;;;;;;;5066722;28;20269;-68
2022/09/13 06:45:49;;;;;;;14.37;9.63;;;;;;;;;;5058403;28;20521;-67
2022/09/13 06:48:14;;;;;;;20.08;9.32;;;;;;;;;;5073601;28;20025;-74
2022/09/13 06:50:40;;;;;;;16.13;9.05;;;;;;;;;;5077779;28;20021;-74
2022/09/13 06:53:05;;;;;;;22.57;9.63;;;;;;;;;;5076732;28;20012;-74
2022/09/13 06:55:30;;;;;;;15.30;9.33;;;;;;;;;;5056477;28;20033;-74
2022/09/13 06:57:57;;;;;;;16.50;9.33;;;;;;;;;;5076777;28;20033;-74
2022/09/13 07:00:22;;;;;;;15.32;9.68;;;;;;;13.13;nan;100420.19;5078642;28;20329;-74
2022/09/13 07:02:51;;;;;;;18.58;9.60;;;;;;;;;;5056676;28;20036;-73
2022/09/13 07:05:17;;;;;;;16.25;10.35;;;;;;;;;;5073110;28;20417;-68
2022/09/13 07:07:43;;;;;;;17.70;9.88;;;;;;;;;;5052573;28;20109;-67
2022/09/13 07:10:08;;;;;;;15.95;9.98;;;;;;;;;;5053486;28;20096;-68
2022/09/13 07:12:33;;;;;;;16.20;9.55;;;;;;;;;;5053177;28;20078;-68
2022/09/13 07:14:59;;;;;;;18.63;9.70;;;;;;;;;;5050919;28;20025;-75
2022/09/13 07:17:24;;;;;;;17.80;9.33;;;;;;;;;;5053112;28;20266;-74
2022/09/13 07:19:49;;;;;;;22.90;10.53;;;;;;;;;;5039562;28;20276;-74
2022/09/13 07:22:14;;;;;;;15.63;9.37;;;;;;;;;;5051612;28;20028;-67
2022/09/13 07:24:41;;;;;;;17.73;8.93;;;;;;;;;;5054562;28;20285;-67
2022/09/13 07:27:06;;;;;;;16.20;9.20;;;;;;;;;;5052335;28;20505;-68
2022/09/13 07:29:31;;;;;;;16.50;9.33;;;;;;;;;;5049554;28;20403;-67
2022/09/13 07:31:57;;;;;;;16.63;9.63;;;;;;;;;;5049620;28;20307;-75
2022/09/13 07:34:23;;;;;;;16.08;8.82;;;;;;;;;;5045786;28;20302;-74
2022/09/13 07:36:49;;;;;;;14.45;9.00;;;;;;;;;;5045286;28;20029;-75
2022/09/13 07:39:15;;;;;;;15.25;9.35;;;;;;;;;;5036812;28;20440;-74
2022/09/13 07:41:40;;;;;;;15.23;8.38;;;;;;;;;;5056150;28;20020;-75
2022/09/13 07:44:06;;;;;;;11.48;8.07;;;;;;;;;;5051167;28;20065;-74
2022/09/13 07:46:32;;;;;;;14.50;8.52;;;;;;;;;;5054797;28;20023;-75
2022/09/13 07:48:58;;;;;;;16.65;9.20;;;;;;;;;;5046458;28;20464;-75
2022/09/13 07:51:25;;;;;;;12.43;8.50;;;;;;;;;;5048051;28;20044;-75
2022/09/13 07:53:51;;;;;;;14.02;8.50;;;;;;;;;;5035021;28;20025;-68
2022/09/13 07:56:20;;;;;;;12.70;8.18;;;;;;;;;;5051583;28;20467;-75
2022/09/13 07:58:46;;;;;;;10.88;8.02;;;;;;;;;;5047385;28;20044;-75
2022/09/13 08:01:14;;;;;;;14.73;8.10;;;;;;;;;;5031104;28;20033;-75
2022/09/13 08:03:40;;;;;;;13.07;7.70;;;;;;;;;;5050572;28;20106;-74
2022/09/13 08:06:06;;;;;;;13.35;8.02;;;;;;;;;;5050316;28;20386;-74
2022/09/13 08:08:31;;;;;;;15.45;8.32;;;;;;;;;;5030189;28;20059;-75
2022/09/13 08:10:57;;;;;;;14.50;8.05;;;;;;;;;;5050308;28;20108;-74
2022/09/13 08:13:23;;;;;;;12.18;7.75;;;;;;;;;;5050994;28;20476;-74
2022/09/13 08:15:48;;;;;;;13.57;7.45;;;;;;;;;;5046401;28;20032;-75
2022/09/13 08:18:14;;;;;;;12.43;7.60;;;;;;;;;;5031515;28;20499;-74
2022/09/13 08:20:39;;;;;;;9.20;7.00;;;;;;;;;;5029393;28;20022;-74
2022/09/13 08:23:06;;;;;;;14.05;7.45;;;;;;;15.95;nan;100405.19;5031451;28;20479;-74
2022/09/13 08:25:33;;;;;;;14.68;7.50;;;;;;;;;;5021443;28;20091;-74
2022/09/13 08:27:59;;;;;;;14.02;7.95;;;;;;;;;;5029194;28;20029;-75
2022/09/13 08:30:31;;;;;;;11.20;7.32;;;;;;;16.17;nan;100438.72;5024992;28;20017;-74
2022/09/13 08:32:57;;;;;;;13.98;7.20;;;;;;;;;;5022244;28;20053;-74
2022/09/13 08:35:22;;;;;;;12.00;6.80;;;;;;;;;;5026401;28;20064;-66
2022/09/13 08:37:47;;;;;;;13.70;7.37;;;;;;;;;;5026754;28;20113;-67
2022/09/13 08:40:14;;;;;;;13.73;7.37;;;;;;;;;;5025204;28;20266;-67
2022/09/13 08:42:39;;;;;;;17.63;7.60;;;;;;;;;;5025726;28;20017;-67
2022/09/13 08:45:06;;;;;;;10.47;6.50;;;;;;;;;;5026295;28;20498;-74
2022/09/13 08:47:51;;;;;;;10.02;6.03;;;;;;;;;;5025704;28;20488;-75
2022/09/13 08:50:17;;;;;;;8.95;6.07;;;;;;;;;;5029951;28;20025;-74
2022/09/13 08:52:42;;;;;;;9.77;6.55;;;;;;;;;;5021124;28;20464;-75
2022/09/13 08:55:26;;;;;;;12.03;6.40;;;;;;;;;;5025692;28;20055;-74
2022/09/13 08:57:59;;;;;;;9.98;5.93;;;;;;;;;;5024586;28;20021;-74
2022/09/13 09:00:27;;;;;;;7.15;5.60;;;;;;;;;;5029186;28;20075;-75
2022/09/13 09:02:58;;;;;;;9.88;4.65;;;;;;;;;;5024033;28;20442;-74
2022/09/13 09:05:26;;;;;;;13.80;4.78;;;;;;;;;;5024100;28;20037;-74
2022/09/13 09:07:55;;;;;;;6.22;4.22;;;;;;;;;;5026266;28;20506;-74
2022/09/13 09:10:23;;;;;;;12.38;4.57;;;;;;;;;;5026550;28;20026;-66
2022/09/13 09:12:54;;;;;;;7.53;4.00;;;;;;;;;;5023338;28;20025;-66
2022/09/13 09:15:35;;;;;;;9.07;3.97;;;;;;;;;;5026600;28;20066;-67
2022/09/13 09:18:09;;;;;;;5.20;3.63;;;;;;;;;;5029523;28;20051;-67
2022/09/13 09:20:40;;;;;;;5.72;3.38;;;;;;;;;;5030795;28;20017;-67
2022/09/13 09:23:11;;;;;;;6.28;4.10;;;;;;;;;;5045163;28;20124;-67
2022/09/13 09:25:37;;;;;;;10.27;3.38;;;;;;;18.26;nan;100391.66;5040080;28;20108;-67
2022/09/13 09:28:08;;;;;;;4.75;3.28;;;;;;;;;;5041546;28;20148;-67
2022/09/13 09:31:07;;;;;;;4.95;3.33;;;;;;;18.53;nan;100351.19;5040421;28;20429;-67
2022/09/13 09:33:46;;;;;;;7.30;3.10;;;;;;;;;;4985727;28;20044;-67
2022/09/13 09:36:20;;;;;;;3.37;2.50;;;;;;;;;;5042658;28;20033;-67
2022/09/13 09:38:45;;;;;;;8.32;2.58;;;;;;;18.83;nan;100341.38;5048867;28;20033;-68
2022/09/13 09:41:15;;;;;;;4.82;3.03;;;;;;;18.96;nan;100347.91;5043423;28;20025;-67
2022/09/13 09:43:57;;;;;;;5.80;2.70;;;;;;;19.00;nan;100327.59;5042813;28;20046;-66
2022/09/13 09:46:27;;;;;;;4.10;2.85;;;;;;;19.12;nan;100338.69;5046003;28;20056;-67
2022/09/13 09:48:59;;;;;;;5.47;3.35;;;;;;;19.23;nan;100299.34;5029472;28;20104;-69
2022/09/13 09:51:27;;;;;;;4.88;3.40;;;;;;;19.29;nan;100336.34;5041445;28;20033;-67
2022/09/13 09:54:00;;;;;;;3.92;3.25;;;;;;;19.27;nan;100338.50;5044849;28;20020;-68
2022/09/13 09:56:30;;;;;;;3.78;2.60;;;;;;;19.31;nan;100336.88;5042170;28;20033;-68
2022/09/13 09:58:56;;;;;;;6.70;3.10;;;;;;;19.37;nan;100320.78;5031011;28;20478;-67
2022/09/13 10:01:26;;;;;;;5.50;3.25;;;;;;;19.42;nan;100329.56;5028831;28;20033;-66
2022/09/13 10:04:03;;;;;;;8.25;3.58;;;;;;;19.45;nan;100378.91;5042559;28;20064;-66
2022/09/13 10:06:30;;;;;;;5.85;3.33;;;;;;;19.54;nan;100329.13;5031938;28;20020;-66
2022/09/13 10:09:02;;;;;;;9.65;3.25;;;;;;;19.55;nan;100328.84;5041671;28;20029;-69
2022/09/13 10:11:58;;;;;;;3.60;2.88;;;;;;;19.59;nan;100318.38;5046300;28;20033;-71
2022/09/13 10:14:35;;;;;;;7.10;2.58;;;;;;;19.67;nan;100339.09;5031316;28;20469;-69
2022/09/13 10:17:13;;;;;;;2.55;2.25;;;;;;;19.71;nan;100300.09;5043505;28;20024;-68
2022/09/13 10:19:39;;;;;;;3.50;2.45;;;;;;;19.70;nan;100313.72;5050860;28;20032;-68
2022/09/13 10:22:10;;;;;;;3.30;2.17;;;;;;;19.71;nan;100382.91;5033454;28;20037;-68
2022/09/13 10:24:36;;;;;;;3.88;2.08;;;;;;;19.66;nan;100300.13;5044259;28;20051;-68
2022/09/13 10:27:03;;;;;;;5.78;2.40;;;;;;;;;;5045611;28;20029;-66
2022/09/13 10:29:29;;;;;;;4.82;2.47;;;;;;;;;;5047597;28;20025;-67
2022/09/13 10:32:00;;;;;;;4.15;2.72;;;;;;;19.66;nan;100392.84;5044508;28;20026;-66
2022/09/13 10:34:27;;;;;;;2.55;1.92;;;;;;;19.75;nan;100319.81;5033145;28;20029;-66
2022/09/13 10:37:04;;;;;;;2.25;2.05;;;;;;;19.91;nan;100311.56;5046267;28;20025;-67
2022/09/13 10:39:34;;;;;;;6.78;3.83;;;;;;;20.04;nan;100321.53;5046486;28;20169;-67
2022/09/13 10:42:02;;;;;;;3.67;2.20;;;;;;;;;;5044604;28;20020;-68
2022/09/13 10:44:36;;;;;;;5.90;2.13;;;;;;;20.25;nan;100342.63;5047510;28;20032;-68
2022/09/13 10:47:09;;;;;;;4.07;2.08;;;;;;;;;;5048455;28;20054;-68
2022/09/13 10:49:40;;;;;;;2.95;2.20;;;;;;;20.39;nan;100312.16;5039470;28;20025;-67
2022/09/13 10:52:35;;;;;;;2.22;2.00;;;;;;;20.35;nan;100318.38;5045708;28;20387;-68
2022/09/13 10:55:18;;;;;;;3.72;1.92;;;;;;;20.35;nan;100318.38;5029318;28;20099;-69
2022/09/13 10:57:49;;;;;;;3.72;1.90;;;;;;;20.20;nan;100311.41;5046195;28;20052;-68
2022/09/13 11:00:42;;;;;;;5.60;1.80;;;;;;;20.22;nan;100313.78;5048822;28;20460;-67
2022/09/13 11:03:20;;;;;;;2.90;1.98;;;;;;;20.26;nan;100317.47;5022773;28;20056;-68
2022/09/13 11:06:14;;;;;;;2.13;1.60;;;;;;;20.28;nan;100315.28;5047428;28;20017;-67
2022/09/13 11:08:45;;;;;;;3.10;1.92;;;;;;;20.40;nan;100323.66;5048482;28;20071;-69
2022/09/13 11:11:32;;;;;;;3.47;1.60;;;;;;;20.50;nan;100320.03;5047980;28;20103;-68
2022/09/13 11:14:07;;;;;;;2.80;1.40;;;;;;;20.69;nan;100304.75;5024061;28;20041;-69
2022/09/13 11:16:57;;;;;;;2.47;1.60;;;;;;;20.77;nan;100289.88;5046999;28;20032;-68
2022/09/13 11:20:00;;;;;;;2.30;1.35;;;;;;;20.88;nan;100311.88;5048305;28;20052;-69
2022/09/13 11:22:49;;;;;;;6.97;1.50;;;;;;;20.89;nan;100292.88;5037050;28;20039;-68
2022/09/13 11:25:33;;;;;;;3.40;1.30;;;;;;;20.96;nan;100313.91;5044364;28;20021;-67
2022/09/13 11:28:23;;;;;;;5.47;1.42;;;;;;;21.04;nan;100289.09;5050960;28;20061;-76
2022/09/13 11:31:01;;;;;;;7.78;1.40;;;;;;;;;;5049925;28;20029;-76
2022/09/13 11:33:33;;;;;;;4.57;1.65;;;;;;;21.04;nan;100279.19;5034043;28;20422;-76
2022/09/13 11:36:20;;;;;;;3.50;1.40;;;;;;;21.13;nan;100291.88;5049784;28;20103;-76
2022/09/13 11:39:20;;;;;;;4.03;1.50;;;;;;;21.25;nan;100290.28;5050166;28;20017;-76
2022/09/13 11:41:58;;;;;;;2.03;1.40;;;;;;;21.23;nan;100339.88;5056854;28;20066;-77
2022/09/13 11:44:54;;;;;;;1.55;1.30;;;;;;;21.35;nan;100259.03;5057986;28;20074;-75
2022/09/13 11:48:07;;;;;;;4.90;1.20;;;;;;;21.41;nan;100282.78;5053330;28;20033;-76
2022/09/13 11:50:57;;;;;;;5.22;1.30;;;;;;;21.52;nan;100269.94;5021478;28;20112;-76
2022/09/13 11:53:49;;;;;;;2.40;1.38;;;;;;;21.53;nan;100266.19;5036980;28;20029;-76
2022/09/13 11:56:27;;;;;;;3.40;1.52;;;;;;;21.56;nan;100229.94;5050760;28;20033;-77
2022/09/13 11:58:58;;;;;;;1.80;1.17;;;;;;;21.71;nan;100248.34;5053831;28;20025;-67
2022/09/13 12:01:36;;;;;;;6.03;1.50;;;;;;;21.76;nan;100240.19;5067777;28;20036;-68
2022/09/13 12:04:40;;;;;;;3.25;1.40;;;;;;;21.85;nan;100237.59;5051071;28;20194;-67
2022/09/13 12:07:17;;;;;;;2.35;1.35;;;;;;;21.91;nan;100230.19;5014286;28;20062;-68
2022/09/13 12:09:54;;;;;;;2.55;1.10;;;;;;;21.90;nan;100248.19;4997583;28;20038;-68
2022/09/13 12:12:25;;;;;;;1.88;1.50;;;;;;;21.94;nan;100262.56;5012232;28;20026;-67
2022/09/13 12:15:01;;;;;;;4.40;1.52;;;;;;;21.97;nan;100294.13;5007732;28;20034;-68
2022/09/13 12:17:35;;;;;;;1.60;1.10;;;;;;;22.04;nan;100227.47;4993046;28;20532;-67
2022/09/13 12:20:04;;;;;;;2.60;1.10;;;;;;;22.04;nan;100242.75;4992080;28;20034;-68
2022/09/13 12:22:34;;;;;;;1.85;1.20;;;;;;;22.18;nan;100221.25;4993632;28;20056;-67
2022/09/13 12:25:12;;;;;;;1.63;1.30;;;;;;;22.27;nan;100295.34;4996577;28;20030;-73
2022/09/13 12:27:42;;;;;;;4.55;1.45;;;;;;;22.32;nan;100243.44;4998880;28;20034;-75
2022/09/13 12:30:22;;;;;;;4.03;1.48;;;;;;;22.36;nan;100233.66;5017583;28;20026;-74
2022/09/13 12:32:49;;;;;;;6.38;2.50;;;;;;;22.39;nan;100233.06;5017216;28;20026;-75
2022/09/13 12:35:20;;;;;;;7.03;2.42;;;;;;;22.42;nan;100237.03;5011359;28;20053;-67
2022/09/13 12:38:19;;;;;;;7.45;2.15;;;;;;;22.50;nan;100241.63;4999306;28;20054;-74
2022/09/13 12:40:57;;;;;;;;;;;;;;;22.59;nan;100253.19;5016630;28;20084;-74
2022/09/13 12:43:25;;;;;;;5.68;2.50;;;;;;;22.57;nan;100233.94;5034591;28;20437;-75
2022/09/13 12:46:06;;;;;;;7.15;2.78;;;;;;;22.60;nan;100227.97;5053613;28;20080;-68
2022/09/13 12:48:43;;;;;;;4.82;1.65;;;;;;;22.67;nan;100259.69;5049310;28;20487;-75
2022/09/13 12:51:30;;;;;;;3.50;1.20;;;;;;;22.79;nan;100251.84;5050348;28;20490;-68
2022/09/13 12:54:08;;;;;;;1.20;1.10;;;;;;;22.88;nan;100236.56;5034077;28;20398;-68
2022/09/13 12:56:54;;;;;;;3.33;1.30;;;;;;;22.90;nan;100225.53;5035465;28;20059;-67
2022/09/13 12:59:19;;;;;;;3.08;1.25;;;;;;;22.88;nan;100262.63;5048969;28;20017;-69
2022/09/13 13:01:48;;;;;;;1.20;1.10;;;;;;;22.89;nan;100251.59;5041310;28;20070;-74
2022/09/13 13:04:23;;;;;;;3.67;1.20;;;;;;;22.86;nan;100173.56;5049898;28;20033;-75
2022/09/13 13:07:00;;;;;;;3.60;1.27;;;;;;;22.90;nan;100276.53;5047759;28;20033;-75
2022/09/13 13:09:32;;;;;;;1.30;1.20;;;;;;;22.93;nan;100241.00;5030304;28;20472;-74
2022/09/13 13:11:58;;;;;;;4.38;1.45;;;;;;;22.80;nan;100237.34;5045194;28;20047;-74
2022/09/13 13:14:40;;;;;;;2.05;1.25;;;;;;;22.64;nan;100247.69;5031058;28;20032;-73
2022/09/13 13:17:36;;;;;;;1.80;1.30;;;;;;;22.65;nan;100240.44;5046043;28;20028;-74
2022/09/13 13:20:42;;;;;;;5.45;1.80;;;;;;;22.64;nan;100255.75;5041071;28;20522;-66
2022/09/13 13:23:26;;;;;;;6.57;1.30;;;;;;;22.44;nan;100240.19;5031384;28;20032;-68
2022/09/13 13:26:12;;;;;;;2.58;1.60;;;;;;;22.64;nan;100247.69;5042483;28;20024;-74
2022/09/13 13:29:16;;;;;;;2.00;1.40;;;;;;;22.68;nan;100240.63;5042822;28;20025;-74
2022/09/13 13:32:02;;;;;;;3.13;0.93;;;;;;;22.70;nan;100241.09;5019094;28;20048;-74
2022/09/13 13:34:42;;;;;;;5.03;1.80;;;;;;;22.50;nan;100247.00;5015859;28;20037;-74
2022/09/13 13:37:07;;;;;;;2.92;1.80;;;;;;;22.56;nan;100234.25;5040793;28;20035;-74
2022/09/13 13:39:44;;;;;;;5.55;1.23;;;;;;;22.71;nan;100240.00;5041687;28;20716;-72
2022/09/13 13:42:25;;;;;;;3.95;1.27;;;;;;;22.81;nan;100248.88;5054803;28;20021;-72
2022/09/13 13:44:53;;;;;;;2.03;1.10;;;;;;;22.75;nan;100248.22;5044247;28;20387;-69
2022/09/13 13:47:19;;;;;;;2.97;1.20;;;;;;;22.54;nan;100242.59;5029852;28;20048;-74
2022/09/13 13:49:51;;;;;;;1.40;1.10;;;;;;;22.29;nan;100233.31;5046560;28;20285;-72
2022/09/13 13:52:22;;;;;;;4.53;1.42;;;;;;;22.38;nan;100238.72;5014639;28;20479;-69
2022/09/13 13:54:54;;;;;;;1.17;1.08;;;;;;;22.47;nan;100242.25;5048904;28;20021;-69